Aeroporto :
LOGIN :

Iscrizione | Disclaimer

   EN    FR    IT 

 










Sommario :    VFR   VFR Marginale   IFR   IFR Intensivo   IFR Molto Intensivo
Visibilità : 
Base nubi : 
>= 8 km
>= 3000ft
5 / 8 km
1000 / 3000 ft
1500m / 5 km
500 / 1000 ft
800 / 1500m
200 / 500 ft
< 800m
< 200 ft
Simboli :   Temporali  Nebbia  Neve Forte  Precipitazioni Forti  Vento > 20 kt
SIGMETs :   Varie  Temporali  Ghiacco  Turbolenza  Onda orograficha  Ceneri Vulcaniche






- Altitudine del aeroporto : 465 ft
- Codice IATA : LEJ


EDDP - Leipzig Halle

ULTIMO METAR :
  • 201720Z 06004KT 4500 -DZ BR BKN003 BKN007 04/04 Q1016 TEMPO 1200 BCFG

METARs OBSOLETI :
  • 201650Z 04005KT 5000 -DZ BKN003 BKN006 04/04 Q1016 TEMPO 4000 -RADZ
  • 201620Z 04006KT 6000 -DZ BKN004 BKN006 04/04 Q1016 TEMPO 4000 -RADZ
  • 201550Z 05004KT 020V080 9999 BKN007 05/04 Q1016 NOSIG
  • 201520Z 05004KT 9999 BKN007 BKN010 05/04 Q1016 NOSIG
  • 201450Z 04004KT 9999 BKN008 05/04 Q1017 NOSIG

TAF TAF EDDP
Valido dal 20 a 18 ore il 21 a 18 ore UTC


201700Z 2018/2118 04005KT 4000 BR BKN004
PROB40
TEMPO 2018/2021 6000 BKN006
BECMG 2018/2021 2000 -DZ
TEMPO 2018/2112 1200 BCFG BKN001
PROB40
TEMPO 2021/2109 0300 FG



MetMap, La meteo Aeronautica in un colpo d'occhio ! - Copyright ORBIFLY Dicembre 2007 - Disclaimer

ORBIFLY MET'MAP TEAM :

Programmazione e sviluppo : Alexandra Zaïnal
Concezione e sviluppo : Baudouin d'Aumeries
Co-Programmazione e sviluppo : Marc-Olivier Méhu
Supporto tecnico e logistico : Manuel Goepfert
Aiuto per la traduzione : Arnaldo La Scala

Contatto : metmap@orbifly.com




FONTI E CREDITI :

   NOAA